sensor_id;sensor_type;location;lat;lon;timestamp;P1;durP1;ratioP1;P2;durP2;ratioP2
25111;SDS011;13092;51.996;4.458;2022-11-20T00:01:07;29.47;;;26.63;;
25111;SDS011;13092;51.996;4.458;2022-11-20T00:03:37;31.53;;;28.53;;
25111;SDS011;13092;51.996;4.458;2022-11-20T00:06:06;32.27;;;29.47;;
25111;SDS011;13092;51.996;4.458;2022-11-20T00:08:35;34.67;;;31.67;;
25111;SDS011;13092;51.996;4.458;2022-11-20T00:11:04;33.53;;;30.50;;
25111;SDS011;13092;51.996;4.458;2022-11-20T00:13:39;29.40;;;26.60;;
25111;SDS011;13092;51.996;4.458;2022-11-20T00:16:10;29.17;;;26.33;;
25111;SDS011;13092;51.996;4.458;2022-11-20T00:18:39;28.43;;;25.73;;
25111;SDS011;13092;51.996;4.458;2022-11-20T00:21:10;32.03;;;28.93;;
25111;SDS011;13092;51.996;4.458;2022-11-20T00:23:39;35.27;;;31.93;;
25111;SDS011;13092;51.996;4.458;2022-11-20T00:26:08;31.67;;;28.77;;
25111;SDS011;13092;51.996;4.458;2022-11-20T00:28:37;28.80;;;26.20;;
25111;SDS011;13092;51.996;4.458;2022-11-20T00:31:07;32.70;;;29.47;;
25111;SDS011;13092;51.996;4.458;2022-11-20T00:33:39;34.50;;;31.10;;
25111;SDS011;13092;51.996;4.458;2022-11-20T00:36:08;34.73;;;31.53;;
25111;SDS011;13092;51.996;4.458;2022-11-20T00:38:37;31.47;;;28.50;;
25111;SDS011;13092;51.996;4.458;2022-11-20T00:41:06;30.23;;;27.43;;
25111;SDS011;13092;51.996;4.458;2022-11-20T00:43:36;31.77;;;28.90;;
25111;SDS011;13092;51.996;4.458;2022-11-20T00:46:05;34.53;;;31.50;;
25111;SDS011;13092;51.996;4.458;2022-11-20T00:48:36;36.10;;;33.03;;
25111;SDS011;13092;51.996;4.458;2022-11-20T00:51:04;37.80;;;34.53;;
25111;SDS011;13092;51.996;4.458;2022-11-20T00:53:32;36.33;;;33.23;;
25111;SDS011;13092;51.996;4.458;2022-11-20T00:56:01;32.10;;;29.10;;
25111;SDS011;13092;51.996;4.458;2022-11-20T00:58:30;32.33;;;29.47;;
25111;SDS011;13092;51.996;4.458;2022-11-20T01:00:59;35.23;;;32.03;;
25111;SDS011;13092;51.996;4.458;2022-11-20T01:03:30;38.40;;;35.03;;
25111;SDS011;13092;51.996;4.458;2022-11-20T01:06:03;35.57;;;32.53;;
25111;SDS011;13092;51.996;4.458;2022-11-20T01:08:33;36.63;;;33.40;;
25111;SDS011;13092;51.996;4.458;2022-11-20T01:11:03;37.40;;;34.20;;
25111;SDS011;13092;51.996;4.458;2022-11-20T01:13:33;38.63;;;35.27;;
25111;SDS011;13092;51.996;4.458;2022-11-20T01:16:06;38.67;;;35.27;;
25111;SDS011;13092;51.996;4.458;2022-11-20T01:18:35;37.70;;;34.40;;
25111;SDS011;13092;51.996;4.458;2022-11-20T01:21:07;38.03;;;34.73;;
25111;SDS011;13092;51.996;4.458;2022-11-20T01:23:37;39.13;;;35.53;;
25111;SDS011;13092;51.996;4.458;2022-11-20T01:26:07;37.53;;;34.17;;
25111;SDS011;13092;51.996;4.458;2022-11-20T01:28:37;35.43;;;32.30;;
25111;SDS011;13092;51.996;4.458;2022-11-20T01:31:10;31.70;;;28.93;;
25111;SDS011;13092;51.996;4.458;2022-11-20T01:33:39;32.23;;;29.43;;
25111;SDS011;13092;51.996;4.458;2022-11-20T01:36:09;29.87;;;27.17;;
25111;SDS011;13092;51.996;4.458;2022-11-20T01:38:38;28.67;;;25.87;;
25111;SDS011;13092;51.996;4.458;2022-11-20T01:41:06;27.17;;;24.47;;
25111;SDS011;13092;51.996;4.458;2022-11-20T01:43:35;27.47;;;24.80;;
25111;SDS011;13092;51.996;4.458;2022-11-20T01:46:08;26.50;;;23.90;;
25111;SDS011;13092;51.996;4.458;2022-11-20T01:48:44;25.27;;;22.67;;
25111;SDS011;13092;51.996;4.458;2022-11-20T01:51:19;27.83;;;25.17;;
25111;SDS011;13092;51.996;4.458;2022-11-20T01:53:51;28.63;;;25.87;;
25111;SDS011;13092;51.996;4.458;2022-11-20T01:56:21;26.63;;;23.83;;
25111;SDS011;13092;51.996;4.458;2022-11-20T01:58:51;26.27;;;23.57;;
25111;SDS011;13092;51.996;4.458;2022-11-20T02:01:21;25.70;;;23.07;;
25111;SDS011;13092;51.996;4.458;2022-11-20T02:03:50;25.37;;;22.30;;
25111;SDS011;13092;51.996;4.458;2022-11-20T02:06:21;27.80;;;22.60;;
25111;SDS011;13092;51.996;4.458;2022-11-20T02:08:51;27.50;;;24.67;;
25111;SDS011;13092;51.996;4.458;2022-11-20T02:11:20;26.40;;;23.87;;
25111;SDS011;13092;51.996;4.458;2022-11-20T02:13:49;28.80;;;26.10;;
25111;SDS011;13092;51.996;4.458;2022-11-20T02:16:18;29.00;;;26.30;;
25111;SDS011;13092;51.996;4.458;2022-11-20T02:18:50;28.03;;;25.23;;
25111;SDS011;13092;51.996;4.458;2022-11-20T02:21:23;27.10;;;24.50;;
25111;SDS011;13092;51.996;4.458;2022-11-20T02:24:01;27.30;;;24.40;;
25111;SDS011;13092;51.996;4.458;2022-11-20T02:26:31;25.83;;;23.17;;
25111;SDS011;13092;51.996;4.458;2022-11-20T02:29:02;26.20;;;23.60;;
25111;SDS011;13092;51.996;4.458;2022-11-20T02:31:35;25.23;;;22.77;;
25111;SDS011;13092;51.996;4.458;2022-11-20T02:34:05;27.77;;;24.97;;
25111;SDS011;13092;51.996;4.458;2022-11-20T02:36:33;25.77;;;23.07;;
25111;SDS011;13092;51.996;4.458;2022-11-20T02:39:05;28.20;;;25.50;;
25111;SDS011;13092;51.996;4.458;2022-11-20T02:41:34;27.77;;;25.07;;
25111;SDS011;13092;51.996;4.458;2022-11-20T02:44:04;29.07;;;26.43;;
25111;SDS011;13092;51.996;4.458;2022-11-20T02:46:32;29.17;;;26.50;;
25111;SDS011;13092;51.996;4.458;2022-11-20T02:49:01;29.73;;;26.83;;
25111;SDS011;13092;51.996;4.458;2022-11-20T02:51:30;29.57;;;26.77;;
25111;SDS011;13092;51.996;4.458;2022-11-20T02:53:58;31.27;;;28.20;;
25111;SDS011;13092;51.996;4.458;2022-11-20T02:56:28;33.30;;;30.30;;
25111;SDS011;13092;51.996;4.458;2022-11-20T02:58:56;32.57;;;29.47;;
25111;SDS011;13092;51.996;4.458;2022-11-20T03:01:24;31.23;;;28.37;;
25111;SDS011;13092;51.996;4.458;2022-11-20T03:03:52;31.27;;;28.37;;
25111;SDS011;13092;51.996;4.458;2022-11-20T03:06:21;32.93;;;29.83;;
25111;SDS011;13092;51.996;4.458;2022-11-20T03:08:49;31.33;;;28.40;;
25111;SDS011;13092;51.996;4.458;2022-11-20T03:11:17;31.00;;;28.20;;
25111;SDS011;13092;51.996;4.458;2022-11-20T03:13:46;31.90;;;28.90;;
25111;SDS011;13092;51.996;4.458;2022-11-20T03:16:16;32.73;;;29.83;;
25111;SDS011;13092;51.996;4.458;2022-11-20T03:18:46;31.13;;;28.23;;
25111;SDS011;13092;51.996;4.458;2022-11-20T03:21:14;30.70;;;27.87;;
25111;SDS011;13092;51.996;4.458;2022-11-20T03:23:43;32.23;;;29.20;;
25111;SDS011;13092;51.996;4.458;2022-11-20T03:26:12;30.80;;;28.00;;
25111;SDS011;13092;51.996;4.458;2022-11-20T03:28:42;30.90;;;28.00;;
25111;SDS011;13092;51.996;4.458;2022-11-20T03:31:17;31.23;;;28.43;;
25111;SDS011;13092;51.996;4.458;2022-11-20T03:33:46;30.20;;;27.40;;
25111;SDS011;13092;51.996;4.458;2022-11-20T03:36:15;29.80;;;27.00;;
25111;SDS011;13092;51.996;4.458;2022-11-20T03:38:44;31.43;;;28.43;;
25111;SDS011;13092;51.996;4.458;2022-11-20T03:41:13;34.03;;;30.67;;
25111;SDS011;13092;51.996;4.458;2022-11-20T03:43:46;36.73;;;33.53;;
25111;SDS011;13092;51.996;4.458;2022-11-20T03:46:17;34.67;;;31.73;;
25111;SDS011;13092;51.996;4.458;2022-11-20T03:48:45;34.30;;;31.23;;
25111;SDS011;13092;51.996;4.458;2022-11-20T03:51:17;34.20;;;31.23;;
25111;SDS011;13092;51.996;4.458;2022-11-20T03:53:48;35.50;;;32.50;;
25111;SDS011;13092;51.996;4.458;2022-11-20T03:56:17;36.27;;;33.27;;
25111;SDS011;13092;51.996;4.458;2022-11-20T03:58:47;36.33;;;33.13;;
25111;SDS011;13092;51.996;4.458;2022-11-20T04:01:16;36.93;;;33.63;;
25111;SDS011;13092;51.996;4.458;2022-11-20T04:03:46;38.03;;;34.83;;
25111;SDS011;13092;51.996;4.458;2022-11-20T04:06:15;36.37;;;33.17;;
25111;SDS011;13092;51.996;4.458;2022-11-20T04:08:45;38.63;;;35.13;;
25111;SDS011;13092;51.996;4.458;2022-11-20T04:11:19;38.43;;;35.00;;
25111;SDS011;13092;51.996;4.458;2022-11-20T04:13:50;40.30;;;36.90;;
25111;SDS011;13092;51.996;4.458;2022-11-20T04:16:20;37.60;;;34.53;;
25111;SDS011;13092;51.996;4.458;2022-11-20T04:18:51;36.63;;;33.53;;
25111;SDS011;13092;51.996;4.458;2022-11-20T04:21:20;39.33;;;35.93;;
25111;SDS011;13092;51.996;4.458;2022-11-20T04:23:48;37.40;;;34.20;;
25111;SDS011;13092;51.996;4.458;2022-11-20T04:26:16;40.27;;;36.53;;
25111;SDS011;13092;51.996;4.458;2022-11-20T04:28:44;39.30;;;35.97;;
25111;SDS011;13092;51.996;4.458;2022-11-20T04:31:13;37.70;;;34.33;;
25111;SDS011;13092;51.996;4.458;2022-11-20T04:33:44;38.03;;;34.60;;
25111;SDS011;13092;51.996;4.458;2022-11-20T04:36:14;36.80;;;33.70;;
25111;SDS011;13092;51.996;4.458;2022-11-20T04:38:43;36.73;;;33.57;;
25111;SDS011;13092;51.996;4.458;2022-11-20T04:41:13;34.77;;;31.87;;
25111;SDS011;13092;51.996;4.458;2022-11-20T04:43:46;37.73;;;34.37;;
25111;SDS011;13092;51.996;4.458;2022-11-20T04:46:15;32.90;;;29.87;;
25111;SDS011;13092;51.996;4.458;2022-11-20T04:48:45;34.83;;;31.70;;
25111;SDS011;13092;51.996;4.458;2022-11-20T04:51:14;34.83;;;31.73;;
25111;SDS011;13092;51.996;4.458;2022-11-20T04:53:42;35.20;;;32.07;;
25111;SDS011;13092;51.996;4.458;2022-11-20T04:56:11;35.00;;;31.90;;
25111;SDS011;13092;51.996;4.458;2022-11-20T04:58:40;36.57;;;33.37;;
25111;SDS011;13092;51.996;4.458;2022-11-20T05:01:09;36.30;;;33.03;;
25111;SDS011;13092;51.996;4.458;2022-11-20T05:03:38;35.73;;;32.63;;
25111;SDS011;13092;51.996;4.458;2022-11-20T05:06:09;37.10;;;33.80;;
25111;SDS011;13092;51.996;4.458;2022-11-20T05:08:40;36.57;;;33.43;;
25111;SDS011;13092;51.996;4.458;2022-11-20T05:11:09;35.87;;;32.97;;
25111;SDS011;13092;51.996;4.458;2022-11-20T05:13:38;37.37;;;34.10;;
25111;SDS011;13092;51.996;4.458;2022-11-20T05:16:07;37.67;;;34.37;;
25111;SDS011;13092;51.996;4.458;2022-11-20T05:18:37;35.30;;;32.27;;
25111;SDS011;13092;51.996;4.458;2022-11-20T05:21:06;37.83;;;34.47;;
25111;SDS011;13092;51.996;4.458;2022-11-20T05:23:37;37.37;;;34.17;;
25111;SDS011;13092;51.996;4.458;2022-11-20T05:26:06;38.77;;;35.27;;
25111;SDS011;13092;51.996;4.458;2022-11-20T05:28:36;37.77;;;34.43;;
25111;SDS011;13092;51.996;4.458;2022-11-20T05:31:04;40.07;;;36.70;;
25111;SDS011;13092;51.996;4.458;2022-11-20T05:33:33;41.13;;;37.63;;
25111;SDS011;13092;51.996;4.458;2022-11-20T05:36:02;40.47;;;36.87;;
25111;SDS011;13092;51.996;4.458;2022-11-20T05:38:31;40.60;;;37.17;;
25111;SDS011;13092;51.996;4.458;2022-11-20T05:41:06;40.67;;;37.23;;
25111;SDS011;13092;51.996;4.458;2022-11-20T05:43:35;39.40;;;36.20;;
25111;SDS011;13092;51.996;4.458;2022-11-20T05:46:05;39.93;;;36.73;;
25111;SDS011;13092;51.996;4.458;2022-11-20T05:48:34;40.73;;;37.33;;
25111;SDS011;13092;51.996;4.458;2022-11-20T05:51:03;39.57;;;36.27;;
25111;SDS011;13092;51.996;4.458;2022-11-20T05:53:33;40.30;;;37.00;;
25111;SDS011;13092;51.996;4.458;2022-11-20T05:56:02;37.47;;;34.37;;
25111;SDS011;13092;51.996;4.458;2022-11-20T05:58:33;41.60;;;37.93;;
25111;SDS011;13092;51.996;4.458;2022-11-20T06:01:05;40.33;;;36.83;;
25111;SDS011;13092;51.996;4.458;2022-11-20T06:03:34;40.67;;;37.23;;
25111;SDS011;13092;51.996;4.458;2022-11-20T06:06:03;41.97;;;38.33;;
25111;SDS011;13092;51.996;4.458;2022-11-20T06:08:32;43.10;;;39.40;;
25111;SDS011;13092;51.996;4.458;2022-11-20T06:11:03;44.67;;;40.97;;
25111;SDS011;13092;51.996;4.458;2022-11-20T06:13:31;44.60;;;40.50;;
25111;SDS011;13092;51.996;4.458;2022-11-20T06:16:07;42.83;;;39.03;;
25111;SDS011;13092;51.996;4.458;2022-11-20T06:18:35;43.47;;;39.87;;
25111;SDS011;13092;51.996;4.458;2022-11-20T06:21:04;43.27;;;39.67;;
25111;SDS011;13092;51.996;4.458;2022-11-20T06:23:35;44.00;;;40.07;;
25111;SDS011;13092;51.996;4.458;2022-11-20T06:26:04;44.40;;;40.80;;
25111;SDS011;13092;51.996;4.458;2022-11-20T06:28:35;44.10;;;40.50;;
25111;SDS011;13092;51.996;4.458;2022-11-20T06:31:03;43.67;;;40.00;;
25111;SDS011;13092;51.996;4.458;2022-11-20T06:33:32;43.90;;;40.30;;
25111;SDS011;13092;51.996;4.458;2022-11-20T06:36:00;43.47;;;39.80;;
25111;SDS011;13092;51.996;4.458;2022-11-20T06:38:35;41.60;;;38.07;;
25111;SDS011;13092;51.996;4.458;2022-11-20T06:41:04;44.37;;;40.30;;
25111;SDS011;13092;51.996;4.458;2022-11-20T06:43:36;44.47;;;40.57;;
25111;SDS011;13092;51.996;4.458;2022-11-20T06:46:04;44.27;;;40.20;;
25111;SDS011;13092;51.996;4.458;2022-11-20T06:48:32;43.40;;;39.57;;
25111;SDS011;13092;51.996;4.458;2022-11-20T06:51:02;46.63;;;42.43;;
25111;SDS011;13092;51.996;4.458;2022-11-20T06:53:30;47.53;;;43.57;;
25111;SDS011;13092;51.996;4.458;2022-11-20T06:55:59;45.23;;;41.43;;
25111;SDS011;13092;51.996;4.458;2022-11-20T06:58:27;45.50;;;41.67;;
25111;SDS011;13092;51.996;4.458;2022-11-20T07:00:59;47.90;;;43.77;;
25111;SDS011;13092;51.996;4.458;2022-11-20T07:03:27;45.70;;;41.70;;
25111;SDS011;13092;51.996;4.458;2022-11-20T07:05:56;45.80;;;42.00;;
25111;SDS011;13092;51.996;4.458;2022-11-20T07:08:25;46.97;;;43.00;;
25111;SDS011;13092;51.996;4.458;2022-11-20T07:10:56;45.93;;;42.07;;
25111;SDS011;13092;51.996;4.458;2022-11-20T07:13:25;44.27;;;40.67;;
25111;SDS011;13092;51.996;4.458;2022-11-20T07:15:54;42.80;;;39.33;;
25111;SDS011;13092;51.996;4.458;2022-11-20T07:18:24;43.47;;;39.57;;
25111;SDS011;13092;51.996;4.458;2022-11-20T07:20:52;43.37;;;39.77;;
25111;SDS011;13092;51.996;4.458;2022-11-20T07:23:20;43.10;;;39.40;;
25111;SDS011;13092;51.996;4.458;2022-11-20T07:25:48;42.97;;;39.47;;
25111;SDS011;13092;51.996;4.458;2022-11-20T07:28:18;43.37;;;39.30;;
25111;SDS011;13092;51.996;4.458;2022-11-20T07:30:49;42.10;;;38.70;;
25111;SDS011;13092;51.996;4.458;2022-11-20T07:33:19;43.10;;;39.20;;
25111;SDS011;13092;51.996;4.458;2022-11-20T07:35:49;43.27;;;39.60;;
25111;SDS011;13092;51.996;4.458;2022-11-20T07:38:17;41.63;;;38.30;;
25111;SDS011;13092;51.996;4.458;2022-11-20T07:40:53;42.90;;;39.40;;
25111;SDS011;13092;51.996;4.458;2022-11-20T07:43:24;44.27;;;40.53;;
25111;SDS011;13092;51.996;4.458;2022-11-20T07:45:54;43.57;;;39.97;;
25111;SDS011;13092;51.996;4.458;2022-11-20T07:48:23;43.80;;;40.10;;
25111;SDS011;13092;51.996;4.458;2022-11-20T07:50:54;43.60;;;40.03;;
25111;SDS011;13092;51.996;4.458;2022-11-20T07:53:23;43.13;;;39.43;;
25111;SDS011;13092;51.996;4.458;2022-11-20T07:55:52;41.90;;;38.50;;
25111;SDS011;13092;51.996;4.458;2022-11-20T07:58:23;42.70;;;39.00;;
25111;SDS011;13092;51.996;4.458;2022-11-20T08:01:03;44.47;;;40.77;;
25111;SDS011;13092;51.996;4.458;2022-11-20T08:03:33;43.10;;;39.67;;
25111;SDS011;13092;51.996;4.458;2022-11-20T08:06:05;44.77;;;41.07;;
25111;SDS011;13092;51.996;4.458;2022-11-20T08:08:35;45.10;;;41.27;;
25111;SDS011;13092;51.996;4.458;2022-11-20T08:11:08;43.33;;;39.77;;
25111;SDS011;13092;51.996;4.458;2022-11-20T08:13:50;43.30;;;39.53;;
25111;SDS011;13092;51.996;4.458;2022-11-20T08:16:36;42.30;;;38.80;;
25111;SDS011;13092;51.996;4.458;2022-11-20T08:19:04;42.67;;;39.07;;
25111;SDS011;13092;51.996;4.458;2022-11-20T08:21:34;41.30;;;37.80;;
25111;SDS011;13092;51.996;4.458;2022-11-20T08:24:04;43.87;;;40.03;;
25111;SDS011;13092;51.996;4.458;2022-11-20T08:26:32;44.17;;;40.47;;
25111;SDS011;13092;51.996;4.458;2022-11-20T08:29:01;43.87;;;39.83;;
25111;SDS011;13092;51.996;4.458;2022-11-20T08:31:29;42.33;;;38.73;;
25111;SDS011;13092;51.996;4.458;2022-11-20T08:34:01;40.33;;;36.97;;
25111;SDS011;13092;51.996;4.458;2022-11-20T08:36:45;42.93;;;39.10;;
25111;SDS011;13092;51.996;4.458;2022-11-20T08:39:13;42.23;;;38.83;;
25111;SDS011;13092;51.996;4.458;2022-11-20T08:41:42;42.60;;;39.03;;
25111;SDS011;13092;51.996;4.458;2022-11-20T08:44:10;42.57;;;39.10;;
25111;SDS011;13092;51.996;4.458;2022-11-20T08:46:39;40.73;;;37.60;;
25111;SDS011;13092;51.996;4.458;2022-11-20T08:49:23;40.97;;;37.47;;
25111;SDS011;13092;51.996;4.458;2022-11-20T08:51:52;40.57;;;37.30;;
25111;SDS011;13092;51.996;4.458;2022-11-20T08:54:21;41.33;;;37.83;;
25111;SDS011;13092;51.996;4.458;2022-11-20T08:56:49;40.73;;;37.43;;
25111;SDS011;13092;51.996;4.458;2022-11-20T08:59:17;41.37;;;38.17;;
25111;SDS011;13092;51.996;4.458;2022-11-20T09:02:05;40.80;;;37.67;;
25111;SDS011;13092;51.996;4.458;2022-11-20T09:04:34;41.93;;;38.50;;
25111;SDS011;13092;51.996;4.458;2022-11-20T09:07:03;40.57;;;37.07;;
25111;SDS011;13092;51.996;4.458;2022-11-20T09:09:31;41.83;;;37.77;;
25111;SDS011;13092;51.996;4.458;2022-11-20T09:11:59;42.17;;;38.67;;
25111;SDS011;13092;51.996;4.458;2022-11-20T09:14:27;40.47;;;37.07;;
25111;SDS011;13092;51.996;4.458;2022-11-20T09:16:56;42.00;;;38.63;;
25111;SDS011;13092;51.996;4.458;2022-11-20T09:19:24;40.90;;;37.57;;
25111;SDS011;13092;51.996;4.458;2022-11-20T09:22:03;40.90;;;37.57;;
25111;SDS011;13092;51.996;4.458;2022-11-20T09:24:31;41.00;;;37.40;;
25111;SDS011;13092;51.996;4.458;2022-11-20T09:27:01;41.03;;;37.77;;
25111;SDS011;13092;51.996;4.458;2022-11-20T09:29:30;43.27;;;39.90;;
25111;SDS011;13092;51.996;4.458;2022-11-20T09:31:57;41.20;;;37.70;;
25111;SDS011;13092;51.996;4.458;2022-11-20T09:34:25;42.47;;;38.93;;
25111;SDS011;13092;51.996;4.458;2022-11-20T09:36:54;42.60;;;39.03;;
25111;SDS011;13092;51.996;4.458;2022-11-20T09:39:23;43.43;;;39.57;;
25111;SDS011;13092;51.996;4.458;2022-11-20T09:42:02;42.03;;;38.53;;
25111;SDS011;13092;51.996;4.458;2022-11-20T09:44:48;44.27;;;40.47;;
25111;SDS011;13092;51.996;4.458;2022-11-20T09:47:34;44.40;;;40.60;;
25111;SDS011;13092;51.996;4.458;2022-11-20T09:50:19;43.43;;;40.03;;
25111;SDS011;13092;51.996;4.458;2022-11-20T09:52:57;43.50;;;39.77;;
25111;SDS011;13092;51.996;4.458;2022-11-20T09:55:37;44.57;;;40.87;;
25111;SDS011;13092;51.996;4.458;2022-11-20T09:58:07;43.70;;;40.10;;
25111;SDS011;13092;51.996;4.458;2022-11-20T10:00:41;42.77;;;39.37;;
25111;SDS011;13092;51.996;4.458;2022-11-20T10:03:11;43.33;;;39.80;;
25111;SDS011;13092;51.996;4.458;2022-11-20T10:05:44;43.40;;;39.70;;
25111;SDS011;13092;51.996;4.458;2022-11-20T10:08:16;43.93;;;40.20;;
25111;SDS011;13092;51.996;4.458;2022-11-20T10:10:52;45.27;;;41.37;;
25111;SDS011;13092;51.996;4.458;2022-11-20T10:13:27;43.63;;;40.03;;
25111;SDS011;13092;51.996;4.458;2022-11-20T10:16:09;45.17;;;41.23;;
25111;SDS011;13092;51.996;4.458;2022-11-20T10:18:50;46.37;;;41.93;;
25111;SDS011;13092;51.996;4.458;2022-11-20T10:21:30;46.20;;;42.00;;
25111;SDS011;13092;51.996;4.458;2022-11-20T10:24:17;44.43;;;40.73;;
25111;SDS011;13092;51.996;4.458;2022-11-20T10:26:58;43.13;;;39.57;;
25111;SDS011;13092;51.996;4.458;2022-11-20T10:29:36;45.47;;;41.50;;
25111;SDS011;13092;51.996;4.458;2022-11-20T10:32:11;44.97;;;41.00;;
25111;SDS011;13092;51.996;4.458;2022-11-20T10:34:44;45.03;;;41.17;;
25111;SDS011;13092;51.996;4.458;2022-11-20T10:37:18;44.37;;;40.53;;
25111;SDS011;13092;51.996;4.458;2022-11-20T10:39:50;45.30;;;41.40;;
25111;SDS011;13092;51.996;4.458;2022-11-20T10:42:26;44.77;;;40.83;;
25111;SDS011;13092;51.996;4.458;2022-11-20T10:45:00;42.70;;;39.10;;
25111;SDS011;13092;51.996;4.458;2022-11-20T10:47:38;42.50;;;38.97;;
25111;SDS011;13092;51.996;4.458;2022-11-20T10:50:09;42.97;;;39.50;;
25111;SDS011;13092;51.996;4.458;2022-11-20T10:52:49;46.10;;;42.03;;
25111;SDS011;13092;51.996;4.458;2022-11-20T10:55:32;46.33;;;42.07;;
25111;SDS011;13092;51.996;4.458;2022-11-20T10:58:10;45.93;;;41.97;;
25111;SDS011;13092;51.996;4.458;2022-11-20T11:00:41;46.20;;;42.03;;
25111;SDS011;13092;51.996;4.458;2022-11-20T11:03:14;44.30;;;40.60;;
25111;SDS011;13092;51.996;4.458;2022-11-20T11:05:51;43.93;;;40.23;;
25111;SDS011;13092;51.996;4.458;2022-11-20T11:08:24;45.67;;;41.67;;
25111;SDS011;13092;51.996;4.458;2022-11-20T11:10:56;43.87;;;40.07;;
25111;SDS011;13092;51.996;4.458;2022-11-20T11:13:30;44.23;;;40.33;;
25111;SDS011;13092;51.996;4.458;2022-11-20T11:15:58;47.00;;;43.00;;
25111;SDS011;13092;51.996;4.458;2022-11-20T11:18:26;45.30;;;41.40;;
25111;SDS011;13092;51.996;4.458;2022-11-20T11:20:56;46.27;;;42.37;;
25111;SDS011;13092;51.996;4.458;2022-11-20T11:23:32;46.03;;;42.03;;
25111;SDS011;13092;51.996;4.458;2022-11-20T11:26:03;46.03;;;41.83;;
25111;SDS011;13092;51.996;4.458;2022-11-20T11:28:34;45.97;;;41.87;;
25111;SDS011;13092;51.996;4.458;2022-11-20T11:31:03;47.13;;;42.93;;
25111;SDS011;13092;51.996;4.458;2022-11-20T11:33:31;45.97;;;41.90;;
25111;SDS011;13092;51.996;4.458;2022-11-20T11:36:02;48.60;;;44.07;;
25111;SDS011;13092;51.996;4.458;2022-11-20T11:38:32;46.60;;;42.30;;
25111;SDS011;13092;51.996;4.458;2022-11-20T11:41:03;47.63;;;43.33;;
25111;SDS011;13092;51.996;4.458;2022-11-20T11:43:35;47.33;;;43.03;;
25111;SDS011;13092;51.996;4.458;2022-11-20T11:46:29;47.03;;;42.73;;
25111;SDS011;13092;51.996;4.458;2022-11-20T11:48:59;48.87;;;44.17;;
25111;SDS011;13092;51.996;4.458;2022-11-20T11:51:31;48.00;;;43.43;;
25111;SDS011;13092;51.996;4.458;2022-11-20T11:54:05;49.50;;;44.90;;
25111;SDS011;13092;51.996;4.458;2022-11-20T11:56:42;46.70;;;42.40;;
25111;SDS011;13092;51.996;4.458;2022-11-20T11:59:14;46.17;;;41.93;;
25111;SDS011;13092;51.996;4.458;2022-11-20T12:01:52;46.37;;;42.17;;
25111;SDS011;13092;51.996;4.458;2022-11-20T12:04:26;46.10;;;41.80;;
25111;SDS011;13092;51.996;4.458;2022-11-20T12:07:07;45.70;;;41.50;;
25111;SDS011;13092;51.996;4.458;2022-11-20T12:09:59;46.87;;;42.23;;
25111;SDS011;13092;51.996;4.458;2022-11-20T12:12:30;45.90;;;41.57;;
25111;SDS011;13092;51.996;4.458;2022-11-20T12:15:06;46.83;;;42.40;;
25111;SDS011;13092;51.996;4.458;2022-11-20T12:17:41;47.07;;;42.57;;
25111;SDS011;13092;51.996;4.458;2022-11-20T12:20:11;47.43;;;42.93;;
25111;SDS011;13092;51.996;4.458;2022-11-20T12:22:42;47.03;;;42.67;;
25111;SDS011;13092;51.996;4.458;2022-11-20T12:25:18;46.87;;;42.63;;
25111;SDS011;13092;51.996;4.458;2022-11-20T12:27:52;47.43;;;42.90;;
25111;SDS011;13092;51.996;4.458;2022-11-20T12:30:48;46.63;;;42.23;;
25111;SDS011;13092;51.996;4.458;2022-11-20T12:33:35;48.10;;;43.73;;
25111;SDS011;13092;51.996;4.458;2022-11-20T12:36:26;46.40;;;42.00;;
25111;SDS011;13092;51.996;4.458;2022-11-20T12:39:03;48.23;;;43.63;;
25111;SDS011;13092;51.996;4.458;2022-11-20T12:41:48;48.40;;;43.67;;
25111;SDS011;13092;51.996;4.458;2022-11-20T12:44:52;48.60;;;44.00;;
25111;SDS011;13092;51.996;4.458;2022-11-20T12:47:42;45.97;;;41.53;;
25111;SDS011;13092;51.996;4.458;2022-11-20T12:50:22;46.90;;;42.30;;
25111;SDS011;13092;51.996;4.458;2022-11-20T12:53:23;47.27;;;42.53;;
25111;SDS011;13092;51.996;4.458;2022-11-20T12:55:57;47.33;;;42.77;;
25111;SDS011;13092;51.996;4.458;2022-11-20T12:58:34;47.97;;;43.30;;
25111;SDS011;13092;51.996;4.458;2022-11-20T13:01:12;48.23;;;43.63;;
25111;SDS011;13092;51.996;4.458;2022-11-20T13:04:08;47.00;;;42.53;;
25111;SDS011;13092;51.996;4.458;2022-11-20T13:06:46;46.87;;;42.37;;
25111;SDS011;13092;51.996;4.458;2022-11-20T13:09:16;48.03;;;43.63;;
25111;SDS011;13092;51.996;4.458;2022-11-20T13:11:48;48.03;;;43.47;;
25111;SDS011;13092;51.996;4.458;2022-11-20T13:14:30;48.73;;;43.47;;
25111;SDS011;13092;51.996;4.458;2022-11-20T13:17:04;48.10;;;42.97;;
25111;SDS011;13092;51.996;4.458;2022-11-20T13:19:39;47.70;;;42.57;;
25111;SDS011;13092;51.996;4.458;2022-11-20T13:22:08;47.60;;;42.80;;
25111;SDS011;13092;51.996;4.458;2022-11-20T13:24:36;46.57;;;41.93;;
25111;SDS011;13092;51.996;4.458;2022-11-20T13:27:05;49.23;;;44.03;;
25111;SDS011;13092;51.996;4.458;2022-11-20T13:29:47;48.03;;;43.33;;
25111;SDS011;13092;51.996;4.458;2022-11-20T13:32:28;48.03;;;43.40;;
25111;SDS011;13092;51.996;4.458;2022-11-20T13:35:00;47.40;;;43.13;;
25111;SDS011;13092;51.996;4.458;2022-11-20T13:37:31;47.83;;;42.97;;
25111;SDS011;13092;51.996;4.458;2022-11-20T13:40:05;47.63;;;42.57;;
25111;SDS011;13092;51.996;4.458;2022-11-20T13:42:39;53.93;;;43.47;;
25111;SDS011;13092;51.996;4.458;2022-11-20T13:45:21;46.87;;;41.90;;
25111;SDS011;13092;51.996;4.458;2022-11-20T13:47:51;47.43;;;42.33;;
25111;SDS011;13092;51.996;4.458;2022-11-20T13:50:25;47.10;;;42.17;;
25111;SDS011;13092;51.996;4.458;2022-11-20T13:53:19;48.03;;;41.43;;
25111;SDS011;13092;51.996;4.458;2022-11-20T13:55:58;45.73;;;40.90;;
25111;SDS011;13092;51.996;4.458;2022-11-20T13:58:35;48.37;;;42.17;;
25111;SDS011;13092;51.996;4.458;2022-11-20T14:01:14;44.60;;;40.20;;
25111;SDS011;13092;51.996;4.458;2022-11-20T14:03:44;47.00;;;39.77;;
25111;SDS011;13092;51.996;4.458;2022-11-20T14:06:34;44.90;;;39.73;;
25111;SDS011;13092;51.996;4.458;2022-11-20T14:09:11;48.93;;;40.63;;
25111;SDS011;13092;51.996;4.458;2022-11-20T14:11:45;59.93;;;47.20;;
25111;SDS011;13092;51.996;4.458;2022-11-20T14:14:15;60.10;;;45.87;;
25111;SDS011;13092;51.996;4.458;2022-11-20T14:16:45;56.60;;;46.70;;
25111;SDS011;13092;51.996;4.458;2022-11-20T14:19:23;59.93;;;46.50;;
25111;SDS011;13092;51.996;4.458;2022-11-20T14:22:09;63.50;;;46.63;;
25111;SDS011;13092;51.996;4.458;2022-11-20T14:24:44;57.90;;;45.70;;
25111;SDS011;13092;51.996;4.458;2022-11-20T14:27:13;56.07;;;45.33;;
25111;SDS011;13092;51.996;4.458;2022-11-20T14:29:43;60.60;;;46.63;;
25111;SDS011;13092;51.996;4.458;2022-11-20T14:32:14;62.10;;;46.97;;
25111;SDS011;13092;51.996;4.458;2022-11-20T14:34:44;66.07;;;47.30;;
25111;SDS011;13092;51.996;4.458;2022-11-20T14:37:19;57.90;;;46.40;;
25111;SDS011;13092;51.996;4.458;2022-11-20T14:39:50;63.83;;;47.07;;
25111;SDS011;13092;51.996;4.458;2022-11-20T14:42:22;57.13;;;44.43;;
25111;SDS011;13092;51.996;4.458;2022-11-20T14:44:52;62.67;;;45.90;;
25111;SDS011;13092;51.996;4.458;2022-11-20T14:47:23;56.60;;;44.77;;
25111;SDS011;13092;51.996;4.458;2022-11-20T14:49:53;59.80;;;44.67;;